createdAt,value
2023-03-26T00:01:46.966Z,10.08
2023-03-26T00:04:15.185Z,9.89
2023-03-26T00:06:44.416Z,9.95
2023-03-26T00:09:14.069Z,10.14
2023-03-26T00:11:42.458Z,10.34
2023-03-26T00:14:14.194Z,10.13
2023-03-26T00:16:43.281Z,10.00
2023-03-26T00:19:11.646Z,10.20
2023-03-26T00:21:39.912Z,10.05
2023-03-26T00:24:15.289Z,9.87
2023-03-26T00:26:44.624Z,10.10
2023-03-26T00:29:13.921Z,10.16
2023-03-26T00:31:46.414Z,10.16
2023-03-26T00:34:15.747Z,9.81
2023-03-26T00:36:44.019Z,9.86
2023-03-26T00:39:14.113Z,10.02
2023-03-26T00:41:43.083Z,10.02
2023-03-26T00:44:11.620Z,10.01
2023-03-26T00:46:39.844Z,9.64
2023-03-26T00:49:10.969Z,9.97
2023-03-26T00:51:39.537Z,9.94
2023-03-26T00:54:08.872Z,9.51
2023-03-26T00:56:38.662Z,9.88
2023-03-26T00:59:06.730Z,9.89
2023-03-26T01:01:34.616Z,9.99
2023-03-26T01:04:35.240Z,9.92
2023-03-26T01:07:10.562Z,9.36
2023-03-26T01:09:44.934Z,9.79
2023-03-26T01:12:17.105Z,9.89
2023-03-26T01:14:46.313Z,10.00
2023-03-26T01:17:15.037Z,9.80
2023-03-26T01:19:49.548Z,9.93
2023-03-26T01:22:20.792Z,9.97
2023-03-26T01:24:56.085Z,9.90
2023-03-26T01:27:33.597Z,9.87
2023-03-26T01:30:11.467Z,9.84
2023-03-26T01:32:51.543Z,10.02
2023-03-26T01:35:30.087Z,9.92
2023-03-26T01:38:10.923Z,9.80
2023-03-26T01:40:47.051Z,10.08
2023-03-26T01:43:23.205Z,10.13
2023-03-26T01:45:52.633Z,10.02
2023-03-26T01:48:21.137Z,9.80
2023-03-26T01:50:53.488Z,9.90
2023-03-26T01:53:21.682Z,9.98
2023-03-26T01:56:02.056Z,10.18
2023-03-26T01:58:36.894Z,10.12
2023-03-26T02:01:16.892Z,9.58
2023-03-26T02:03:51.435Z,10.09
2023-03-26T02:06:25.731Z,10.04
2023-03-26T02:08:57.690Z,9.95
2023-03-26T02:11:34.782Z,9.77
2023-03-26T02:14:05.423Z,9.99
2023-03-26T02:16:33.421Z,10.06
2023-03-26T02:19:01.286Z,10.02
2023-03-26T02:21:29.440Z,9.87
2023-03-26T02:24:02.747Z,10.05
2023-03-26T02:26:37.641Z,9.64
2023-03-26T02:29:12.324Z,9.87
2023-03-26T02:31:43.339Z,10.00
2023-03-26T02:34:11.308Z,9.76
2023-03-26T02:36:42.876Z,9.82
2023-03-26T02:39:11.971Z,9.09
2023-03-26T02:41:42.050Z,9.76
2023-03-26T02:44:12.536Z,9.73
2023-03-26T02:46:58.666Z,9.92
2023-03-26T02:49:48.223Z,9.82
2023-03-26T02:52:33.601Z,9.82
2023-03-26T02:55:01.639Z,9.85
2023-03-26T02:57:31.364Z,10.06
2023-03-26T03:00:17.401Z,9.72
2023-03-26T03:02:48.817Z,9.71
2023-03-26T03:05:48.473Z,9.26
2023-03-26T03:08:39.156Z,9.56
2023-03-26T03:11:22.075Z,9.64
2023-03-26T03:13:54.165Z,10.08
2023-03-26T03:16:29.654Z,10.04
2023-03-26T03:19:01.829Z,9.98
2023-03-26T03:21:40.591Z,10.00
2023-03-26T03:24:11.608Z,9.89
2023-03-26T03:26:47.635Z,9.98
2023-03-26T03:29:43.895Z,10.18
2023-03-26T03:32:32.047Z,10.11
2023-03-26T03:35:05.234Z,10.05
2023-03-26T03:37:33.122Z,10.15
2023-03-26T03:40:01.480Z,9.83
2023-03-26T03:42:32.632Z,10.06
2023-03-26T03:45:05.938Z,10.54
2023-03-26T03:48:00.379Z,10.29
2023-03-26T03:50:36.589Z,9.98
2023-03-26T03:53:30.489Z,10.40
2023-03-26T03:56:01.927Z,10.28
2023-03-26T03:58:48.670Z,10.14
2023-03-26T04:01:26.171Z,9.99
2023-03-26T04:04:00.127Z,9.39
2023-03-26T04:06:41.526Z,10.03
2023-03-26T04:09:11.095Z,9.70
2023-03-26T04:11:39.614Z,9.92
2023-03-26T04:14:27.692Z,10.14
2023-03-26T04:17:06.490Z,10.01
2023-03-26T04:19:38.475Z,10.06
2023-03-26T04:22:09.363Z,10.28
2023-03-26T04:24:44.394Z,9.95
2023-03-26T04:27:44.390Z,9.54
2023-03-26T04:30:21.884Z,9.53
2023-03-26T04:32:58.614Z,10.25
2023-03-26T04:35:30.459Z,10.27
2023-03-26T04:37:58.988Z,10.17
2023-03-26T04:40:34.560Z,10.09
2023-03-26T04:43:26.402Z,10.04
2023-03-26T04:46:07.452Z,9.98
2023-03-26T04:48:43.085Z,9.89
2023-03-26T04:51:18.227Z,10.08
2023-03-26T04:53:52.688Z,10.22
2023-03-26T04:56:48.052Z,10.22
2023-03-26T04:59:34.931Z,10.25
2023-03-26T05:02:07.917Z,10.28
2023-03-26T05:04:49.923Z,9.56
2023-03-26T05:07:22.346Z,9.96
2023-03-26T05:09:53.650Z,10.11
2023-03-26T05:12:35.028Z,10.15
2023-03-26T05:15:07.738Z,10.12
2023-03-26T05:18:04.731Z,10.08
2023-03-26T05:20:42.566Z,10.08
2023-03-26T05:23:11.446Z,10.01
2023-03-26T05:25:59.560Z,10.07
2023-03-26T05:28:28.215Z,10.38
2023-03-26T05:31:03.656Z,10.56
2023-03-26T05:33:37.341Z,10.48
2023-03-26T05:36:15.232Z,10.54
2023-03-26T05:38:49.921Z,10.62
2023-03-26T05:41:36.339Z,10.57
2023-03-26T05:44:04.493Z,10.41
2023-03-26T05:46:32.671Z,10.41
2023-03-26T05:49:01.377Z,10.53
2023-03-26T05:51:35.454Z,9.75
2023-03-26T05:54:38.516Z,10.62
2023-03-26T05:57:09.150Z,10.53
2023-03-26T05:59:56.590Z,10.54
2023-03-26T06:02:57.280Z,10.52
2023-03-26T06:05:45.693Z,10.49
2023-03-26T06:08:20.634Z,10.56
2023-03-26T06:10:58.927Z,10.48
2023-03-26T06:13:27.514Z,10.30
2023-03-26T06:15:57.914Z,10.56
2023-03-26T06:18:33.146Z,10.59
2023-03-26T06:21:19.886Z,10.53
2023-03-26T06:24:00.501Z,10.53
2023-03-26T06:26:41.079Z,10.52
2023-03-26T06:29:31.146Z,10.49
2023-03-26T06:32:19.486Z,10.57
2023-03-26T06:35:07.713Z,10.64
2023-03-26T06:37:35.984Z,10.79
2023-03-26T06:40:06.645Z,10.58
2023-03-26T06:43:11.116Z,10.51
2023-03-26T06:46:11.272Z,10.84
2023-03-26T06:48:39.573Z,10.67
2023-03-26T06:51:27.679Z,10.62
2023-03-26T06:54:18.673Z,10.46
2023-03-26T06:57:21.000Z,10.59
2023-03-26T07:00:10.537Z,10.44
2023-03-26T07:02:56.772Z,10.41
2023-03-26T07:05:43.354Z,10.49
2023-03-26T07:08:31.993Z,10.59
2023-03-26T07:11:36.353Z,10.63
2023-03-26T07:14:27.812Z,10.44
2023-03-26T07:17:09.020Z,10.43
2023-03-26T07:20:08.140Z,10.84
2023-03-26T07:22:36.930Z,10.78
2023-03-26T07:25:09.318Z,10.91
2023-03-26T07:27:59.243Z,10.40
2023-03-26T07:30:59.894Z,11.32
2023-03-26T07:33:47.308Z,11.31
2023-03-26T07:36:34.985Z,11.46
2023-03-26T07:39:37.492Z,11.22
2023-03-26T07:42:35.718Z,11.27
2023-03-26T07:45:30.448Z,11.31
2023-03-26T07:48:16.945Z,11.09
2023-03-26T07:51:10.407Z,11.45
2023-03-26T07:54:04.114Z,11.33
2023-03-26T07:56:48.204Z,11.62
2023-03-26T07:59:52.197Z,11.79
2023-03-26T08:03:15.995Z,10.94
2023-03-26T08:06:01.450Z,10.95
2023-03-26T08:08:56.417Z,11.16
2023-03-26T08:11:57.895Z,11.03
2023-03-26T08:14:37.268Z,11.30
2023-03-26T08:17:11.036Z,11.41
2023-03-26T08:19:49.259Z,11.50
2023-03-26T08:22:26.241Z,11.56
2023-03-26T08:25:20.880Z,11.63
2023-03-26T08:28:01.695Z,11.71
2023-03-26T08:30:30.955Z,12.27
2023-03-26T08:33:00.702Z,11.86
2023-03-26T08:35:29.958Z,11.81
2023-03-26T08:37:58.036Z,11.91
2023-03-26T08:40:54.012Z,11.90
2023-03-26T08:43:49.044Z,11.85
2023-03-26T08:46:48.911Z,11.97
2023-03-26T08:49:45.894Z,11.69
2023-03-26T08:52:38.671Z,10.85
2023-03-26T08:55:23.220Z,11.72
2023-03-26T08:58:37.088Z,11.74
2023-03-26T09:01:23.317Z,12.24
2023-03-26T09:04:22.552Z,11.75
2023-03-26T09:07:22.897Z,11.85
2023-03-26T09:10:33.257Z,12.06
2023-03-26T09:13:43.525Z,12.17
2023-03-26T09:16:54.166Z,12.56
2023-03-26T09:19:55.252Z,12.15
2023-03-26T09:23:07.602Z,12.52
2023-03-26T09:26:04.905Z,12.53
2023-03-26T09:29:11.278Z,12.60
2023-03-26T09:32:24.361Z,12.31
2023-03-26T09:35:13.223Z,12.53
2023-03-26T09:37:58.858Z,12.60
2023-03-26T09:40:38.797Z,11.76
2023-03-26T09:43:37.546Z,11.87
2023-03-26T09:46:21.811Z,12.56
2023-03-26T09:49:08.859Z,12.53
2023-03-26T09:51:55.445Z,12.85
2023-03-26T09:54:51.727Z,12.32
2023-03-26T09:57:36.510Z,12.94
2023-03-26T10:00:22.192Z,13.46
2023-03-26T10:03:15.056Z,13.07
2023-03-26T10:05:58.024Z,13.32
2023-03-26T10:08:44.293Z,12.95
2023-03-26T10:11:21.398Z,12.57
2023-03-26T10:14:00.028Z,12.52
2023-03-26T10:16:39.299Z,12.86
2023-03-26T10:19:31.654Z,13.15
2023-03-26T10:22:09.455Z,13.15
2023-03-26T10:25:00.413Z,13.17
2023-03-26T10:27:42.255Z,13.50
2023-03-26T10:30:40.604Z,13.06
2023-03-26T10:33:18.997Z,12.80
2023-03-26T10:35:57.289Z,13.15
2023-03-26T10:38:37.052Z,13.18
2023-03-26T10:41:12.740Z,12.71
2023-03-26T10:44:08.884Z,13.04
2023-03-26T10:47:15.482Z,13.01
2023-03-26T10:50:04.071Z,13.13
2023-03-26T10:52:38.768Z,12.28
2023-03-26T10:55:15.288Z,13.16
2023-03-26T10:57:46.966Z,12.96
2023-03-26T11:00:18.088Z,13.07
2023-03-26T11:02:55.651Z,13.32
2023-03-26T11:05:47.823Z,12.64
2023-03-26T11:08:31.101Z,12.32
2023-03-26T11:11:10.264Z,12.33
2023-03-26T11:13:50.402Z,11.96
2023-03-26T11:16:26.675Z,12.14
2023-03-26T11:19:00.537Z,11.97
2023-03-26T11:21:37.275Z,12.07
2023-03-26T11:24:37.576Z,12.23
2023-03-26T11:27:15.314Z,11.96
2023-03-26T11:29:51.483Z,11.69
2023-03-26T11:32:23.676Z,11.50
2023-03-26T11:35:00.409Z,11.85
2023-03-26T11:37:34.756Z,11.88
2023-03-26T11:40:07.750Z,12.02
2023-03-26T11:42:35.856Z,11.96
2023-03-26T11:45:07.822Z,11.94
2023-03-26T11:47:41.706Z,11.90
2023-03-26T11:50:16.917Z,11.74
2023-03-26T11:52:47.102Z,11.54
2023-03-26T11:55:15.788Z,11.69
2023-03-26T11:57:51.747Z,11.77
2023-03-26T12:00:23.030Z,11.55
2023-03-26T12:02:51.871Z,11.55
2023-03-26T12:05:22.293Z,11.77
2023-03-26T12:07:57.282Z,11.48
2023-03-26T12:10:29.391Z,11.57
2023-03-26T12:13:00.632Z,11.37
2023-03-26T12:15:30.865Z,11.16
2023-03-26T12:17:59.298Z,11.02
2023-03-26T12:20:38.580Z,10.99
2023-03-26T12:23:08.178Z,10.69
2023-03-26T12:25:38.857Z,10.64
2023-03-26T12:28:18.850Z,10.81
2023-03-26T12:30:55.000Z,10.93
2023-03-26T12:33:27.655Z,10.75
2023-03-26T12:35:57.902Z,10.74
2023-03-26T12:38:32.988Z,10.92
2023-03-26T12:42:36.633Z,10.83
2023-03-26T12:44:51.244Z,10.98
2023-03-26T12:47:56.162Z,10.97
2023-03-26T12:49:35.371Z,10.92
2023-03-26T12:52:19.756Z,10.92
2023-03-26T12:54:57.586Z,10.65
2023-03-26T12:57:30.754Z,10.48
2023-03-26T13:00:11.467Z,10.00
2023-03-26T13:02:58.872Z,9.83
2023-03-26T13:05:43.102Z,9.84
2023-03-26T13:08:28.708Z,9.99
2023-03-26T13:11:01.757Z,10.18
2023-03-26T13:13:56.326Z,10.26
2023-03-26T13:16:33.289Z,9.64
2023-03-26T13:19:07.076Z,10.24
2023-03-26T13:21:47.036Z,9.93
2023-03-26T13:24:29.613Z,10.65
2023-03-26T13:27:12.951Z,10.28
2023-03-26T13:29:56.334Z,9.67
2023-03-26T13:32:35.112Z,9.99
2023-03-26T13:35:17.687Z,9.75
2023-03-26T13:37:53.369Z,9.96
2023-03-26T13:40:27.838Z,9.95
2023-03-26T13:43:15.964Z,9.37
2023-03-26T13:45:55.792Z,10.08
2023-03-26T13:48:29.366Z,9.96
2023-03-26T13:51:03.689Z,9.73
2023-03-26T13:53:38.450Z,10.49
2023-03-26T13:56:09.458Z,10.24
2023-03-26T13:58:43.599Z,10.67
2023-03-26T14:01:17.529Z,10.83
2023-03-26T14:03:54.528Z,10.68
2023-03-26T14:06:33.972Z,11.00
2023-03-26T14:09:06.558Z,10.86
2023-03-26T14:11:47.302Z,11.05
2023-03-26T14:14:21.141Z,10.60
2023-03-26T14:16:54.536Z,10.53
2023-03-26T14:20:14.766Z,10.95
2023-03-26T14:22:52.215Z,10.87
2023-03-26T14:25:31.248Z,11.10
2023-03-26T14:28:17.135Z,9.28
2023-03-26T14:31:19.440Z,10.00
2023-03-26T14:34:25.966Z,10.44
2023-03-26T14:37:27.801Z,10.87
2023-03-26T14:40:14.877Z,10.84
2023-03-26T14:42:48.912Z,10.86
2023-03-26T14:45:39.582Z,10.84
2023-03-26T14:48:38.433Z,10.71
2023-03-26T14:51:19.584Z,10.77
2023-03-26T14:53:52.119Z,10.79
2023-03-26T14:56:47.957Z,10.70
2023-03-26T15:00:07.097Z,10.85
2023-03-26T15:03:34.574Z,10.95
2023-03-26T15:06:27.255Z,10.87
2023-03-26T15:09:27.687Z,10.81
2023-03-26T15:12:12.057Z,10.78
2023-03-26T15:15:26.995Z,10.78
2023-03-26T15:18:15.573Z,10.86
2023-03-26T15:21:16.422Z,10.78
2023-03-26T15:24:09.778Z,10.56
2023-03-26T15:27:12.050Z,10.44
2023-03-26T15:30:02.775Z,10.04
2023-03-26T15:33:06.814Z,10.18
2023-03-26T15:36:09.313Z,10.15
2023-03-26T15:39:08.429Z,10.27
2023-03-26T15:41:45.206Z,10.01
2023-03-26T15:44:40.947Z,10.25
2023-03-26T15:47:37.307Z,10.30
2023-03-26T15:50:19.150Z,10.34
2023-03-26T15:52:56.016Z,10.09
2023-03-26T15:55:33.605Z,10.06
2023-03-26T15:58:11.458Z,9.58
2023-03-26T16:00:50.900Z,9.51
2023-03-26T16:03:31.881Z,9.77
2023-03-26T16:06:30.795Z,9.64
2023-03-26T16:09:17.035Z,9.70
2023-03-26T16:11:54.950Z,9.61
2023-03-26T16:14:25.179Z,9.44
2023-03-26T16:16:55.220Z,9.75
2023-03-26T16:19:49.169Z,9.74
2023-03-26T16:22:43.413Z,9.65
2023-03-26T16:25:30.798Z,8.99
2023-03-26T16:28:27.512Z,8.32
2023-03-26T16:31:38.381Z,9.72
2023-03-26T16:34:42.455Z,9.68
2023-03-26T16:37:36.985Z,9.77
2023-03-26T16:40:34.225Z,9.72
2023-03-26T16:43:26.510Z,9.33
2023-03-26T16:46:01.195Z,9.18
2023-03-26T16:48:36.390Z,9.18
2023-03-26T16:51:14.900Z,9.20
2023-03-26T16:53:51.225Z,9.07
2023-03-26T16:56:31.992Z,9.12
2023-03-26T16:59:07.793Z,9.11
2023-03-26T17:01:42.921Z,9.07
2023-03-26T17:04:17.167Z,8.94
2023-03-26T17:07:09.589Z,8.93
2023-03-26T17:09:46.514Z,9.08
2023-03-26T17:12:23.788Z,9.10
2023-03-26T17:15:07.444Z,8.95
2023-03-26T17:17:58.591Z,8.97
2023-03-26T17:20:36.827Z,8.97
2023-03-26T17:23:17.242Z,8.86
2023-03-26T17:25:58.549Z,8.52
2023-03-26T17:29:01.593Z,8.93
2023-03-26T17:31:41.127Z,8.95
2023-03-26T17:34:34.825Z,8.88
2023-03-26T17:37:05.645Z,8.99
2023-03-26T17:40:36.066Z,8.77
2023-03-26T17:43:06.279Z,8.75
2023-03-26T17:45:39.209Z,8.80
2023-03-26T17:48:17.816Z,8.69
2023-03-26T17:50:53.418Z,8.77
2023-03-26T17:53:25.748Z,8.80
2023-03-26T17:55:54.818Z,8.56
2023-03-26T17:58:28.121Z,8.74
2023-03-26T18:01:05.056Z,8.69
2023-03-26T18:03:37.302Z,8.71
2023-03-26T18:06:09.637Z,8.24
2023-03-26T18:08:50.740Z,8.87
2023-03-26T18:11:38.273Z,8.81
2023-03-26T18:14:30.763Z,8.48
2023-03-26T18:17:00.975Z,7.73
2023-03-26T18:19:31.867Z,8.51
2023-03-26T18:22:04.726Z,8.41
2023-03-26T18:24:37.463Z,8.58
2023-03-26T18:27:09.549Z,8.72
2023-03-26T18:29:38.853Z,8.64
2023-03-26T18:32:22.175Z,8.45
2023-03-26T18:34:57.226Z,8.52
2023-03-26T18:37:28.110Z,8.16
2023-03-26T18:40:02.298Z,8.50
2023-03-26T18:42:32.727Z,8.56
2023-03-26T18:45:05.239Z,8.45
2023-03-26T18:47:33.324Z,8.30
2023-03-26T18:50:02.583Z,8.41
2023-03-26T18:52:33.191Z,8.36
2023-03-26T18:55:03.780Z,8.27
2023-03-26T18:57:31.843Z,8.54
2023-03-26T19:00:15.633Z,8.21
2023-03-26T19:02:43.721Z,8.47
2023-03-26T19:05:16.732Z,8.61
2023-03-26T19:07:47.102Z,8.53
2023-03-26T19:10:21.997Z,8.47
2023-03-26T19:12:56.287Z,8.46
2023-03-26T19:15:25.646Z,8.29
2023-03-26T19:17:59.585Z,8.30
2023-03-26T19:20:33.633Z,8.18
2023-03-26T19:23:01.730Z,8.11
2023-03-26T19:25:35.245Z,7.70
2023-03-26T19:28:03.645Z,8.28
2023-03-26T19:30:34.087Z,8.14
2023-03-26T19:33:13.976Z,8.08
2023-03-26T19:35:45.339Z,7.76
2023-03-26T19:38:25.514Z,7.74
2023-03-26T19:40:55.497Z,7.68
2023-03-26T19:43:23.856Z,7.51
2023-03-26T19:46:00.266Z,7.46
2023-03-26T19:48:45.676Z,7.40
2023-03-26T19:51:20.975Z,7.42
2023-03-26T19:53:52.972Z,7.46
2023-03-26T19:56:21.890Z,7.29
2023-03-26T19:58:50.422Z,7.61
2023-03-26T20:01:20.911Z,7.27
2023-03-26T20:03:52.639Z,7.01
2023-03-26T20:06:33.956Z,6.92
2023-03-26T20:09:10.872Z,7.02
2023-03-26T20:11:39.878Z,6.88
2023-03-26T20:14:13.834Z,6.79
2023-03-26T20:16:43.813Z,6.81
2023-03-26T20:19:14.097Z,6.65
2023-03-26T20:21:44.311Z,6.74
2023-03-26T20:24:14.635Z,6.80
2023-03-26T20:26:42.575Z,6.70
2023-03-26T20:29:11.517Z,6.87
2023-03-26T20:31:41.345Z,6.66
2023-03-26T20:34:19.778Z,6.38
2023-03-26T20:36:54.245Z,6.24
2023-03-26T20:39:22.944Z,6.09
2023-03-26T20:41:51.540Z,6.45
2023-03-26T20:44:20.992Z,6.41
2023-03-26T20:46:50.607Z,6.20
2023-03-26T20:49:19.200Z,6.34
2023-03-26T20:51:47.702Z,6.11
2023-03-26T20:54:19.411Z,5.90
2023-03-26T20:56:49.204Z,5.89
2023-03-26T20:59:22.290Z,5.98
2023-03-26T21:01:51.290Z,6.01
2023-03-26T21:04:20.380Z,5.83
2023-03-26T21:06:48.956Z,5.80
2023-03-26T21:09:23.618Z,5.77
2023-03-26T21:12:00.361Z,5.75
2023-03-26T21:14:32.144Z,5.74
2023-03-26T21:17:00.539Z,5.76
2023-03-26T21:19:29.100Z,5.84
2023-03-26T21:22:04.777Z,5.92
2023-03-26T21:24:46.919Z,5.89
2023-03-26T21:27:26.184Z,6.11
2023-03-26T21:29:54.824Z,6.06
2023-03-26T21:32:24.218Z,5.52
2023-03-26T21:34:58.505Z,5.53
2023-03-26T21:37:27.960Z,5.51
2023-03-26T21:39:59.736Z,5.24
2023-03-26T21:42:29.383Z,5.33
2023-03-26T21:44:57.704Z,5.43
2023-03-26T21:47:26.257Z,5.25
2023-03-26T21:49:54.767Z,5.52
2023-03-26T21:52:23.876Z,5.17
2023-03-26T21:54:52.795Z,5.32
2023-03-26T21:57:43.419Z,5.12
2023-03-26T22:00:16.265Z,5.16
2023-03-26T22:02:56.258Z,5.18
2023-03-26T22:05:31.105Z,5.12
2023-03-26T22:08:02.075Z,5.23
2023-03-26T22:10:30.827Z,5.17
2023-03-26T22:13:00.415Z,5.20
2023-03-26T22:15:30.552Z,5.02
2023-03-26T22:18:00.886Z,5.27
2023-03-26T22:20:29.174Z,5.04
2023-03-26T22:22:57.035Z,5.05
2023-03-26T22:25:25.267Z,5.02
2023-03-26T22:27:53.849Z,4.72
2023-03-26T22:30:23.044Z,5.02
2023-03-26T22:32:51.723Z,5.05
2023-03-26T22:35:20.119Z,4.82
2023-03-26T22:37:48.424Z,4.90
2023-03-26T22:40:17.901Z,4.44
2023-03-26T22:42:45.746Z,5.03
2023-03-26T22:45:13.993Z,4.76
2023-03-26T22:47:43.261Z,4.83
2023-03-26T22:50:12.117Z,4.87
2023-03-26T22:52:40.839Z,4.91
2023-03-26T22:55:10.995Z,4.86
2023-03-26T22:57:39.249Z,4.69
2023-03-26T23:00:16.095Z,4.86
2023-03-26T23:02:46.110Z,4.86
2023-03-26T23:05:14.156Z,4.83
2023-03-26T23:07:42.464Z,4.67
2023-03-26T23:10:11.629Z,4.68
2023-03-26T23:12:39.961Z,4.52
2023-03-26T23:15:09.760Z,4.46
2023-03-26T23:17:38.617Z,4.56
2023-03-26T23:20:14.607Z,4.47
2023-03-26T23:22:43.673Z,4.58
2023-03-26T23:25:12.575Z,4.67
2023-03-26T23:27:41.253Z,4.83
2023-03-26T23:30:11.864Z,4.46
2023-03-26T23:32:40.653Z,4.83
2023-03-26T23:35:11.217Z,4.59
2023-03-26T23:37:42.204Z,4.73
2023-03-26T23:40:12.472Z,4.65
2023-03-26T23:42:40.384Z,4.50
2023-03-26T23:45:09.295Z,4.73
2023-03-26T23:47:37.406Z,4.78
2023-03-26T23:50:07.768Z,4.74
2023-03-26T23:52:37.774Z,4.54
2023-03-26T23:55:06.271Z,4.36
2023-03-26T23:57:35.393Z,4.46
